Time;durP1;ratioP1;P1;durP2;ratioP2;P2;SDS_P1;SDS_P2;PMS_P1;PMS_P2;Temp;Humidity;BMP_temperature;BMP_pressure;BME280_temperature;BME280_humidity;BME280_pressure;Samples;Min_cycle;Max_cycle;Signal;HPM_P1;HPM_P2
2021/01/12 00:03:12;;;;;;;22.42;15.13;;;;;;;2.75;66.48;99906.70;2947349;79;21578;-67
2021/01/12 00:07:24;;;;;;;22.80;14.18;;;;;;;2.74;66.66;99900.63;2949232;80;21117;-67
2021/01/12 00:11:27;;;;;;;25.00;15.03;;;;;;;2.75;66.54;99894.89;2956161;80;21124;-68
2021/01/12 00:15:31;;;;;;;25.68;15.68;;;;;;;2.76;66.29;99900.55;2956337;80;21546;-69
2021/01/12 00:19:36;;;;;;;26.52;14.83;;;;;;;2.75;66.26;99893.13;2956357;80;21174;-68
2021/01/12 00:23:40;;;;;;;23.57;14.28;;;;;;;2.72;66.55;99888.05;2956490;80;21132;-68
2021/01/12 00:27:43;;;;;;;31.37;17.50;;;;;;;2.69;66.49;99879.86;2956087;80;21590;-68
2021/01/12 00:31:47;;;;;;;26.62;18.12;;;;;;;2.66;66.63;99868.22;2956107;80;21613;-68
2021/01/12 00:35:51;;;;;;;19.98;13.30;;;;;;;2.64;66.50;99863.52;2956280;80;21144;-67
2021/01/12 00:39:54;;;;;;;21.42;14.18;;;;;;;2.63;66.69;99864.45;2956239;80;21061;-68
2021/01/12 00:44:03;;;;;;;21.45;15.18;;;;;;;2.56;66.92;99866.56;2956120;80;21144;-68
2021/01/12 00:48:07;;;;;;;26.25;17.92;;;;;;;2.53;67.09;99855.38;2956367;80;21135;-68
2021/01/12 00:52:12;;;;;;;25.68;14.73;;;;;;;2.49;67.38;99859.97;2956424;80;21179;-68
2021/01/12 00:56:17;;;;;;;27.17;16.62;;;;;;;2.47;67.44;99853.09;2956559;80;21141;-68
2021/01/12 01:00:20;;;;;;;23.00;16.20;;;;;;;2.45;67.58;99861.05;2956397;80;21164;-68
2021/01/12 01:04:23;;;;;;;21.10;13.30;;;;;;;2.42;67.64;99859.45;2956118;80;21132;-68
2021/01/12 01:08:28;;;;;;;27.15;16.57;;;;;;;2.41;67.42;99859.08;2957564;79;21151;-68
2021/01/12 01:12:32;;;;;;;22.48;15.80;;;;;;;2.39;67.72;99856.14;2959220;80;21100;-67
2021/01/12 01:16:36;;;;;;;26.65;16.97;;;;;;;2.37;67.67;99843.11;2959378;80;21590;-68
2021/01/12 01:20:40;;;;;;;25.97;15.40;;;;;;;2.37;67.68;99843.11;2959705;80;21135;-68
2021/01/12 01:24:44;;;;;;;21.90;14.55;;;;;;;2.37;67.56;99839.63;2959406;80;21426;-68
2021/01/12 01:28:50;;;;;;;20.40;14.00;;;;;;;2.35;67.40;99821.33;2959669;80;21163;-68
2021/01/12 01:32:53;;;;;;;28.45;16.10;;;;;;;2.33;67.64;99827.61;2959402;80;21100;-68
2021/01/12 01:37:03;;;;;;;29.52;16.32;;;;;;;2.30;67.82;99828.61;2959441;80;21685;-68
2021/01/12 01:41:08;;;;;;;30.05;16.15;;;;;;;2.23;68.12;99832.03;2959563;80;21108;-68
2021/01/12 01:45:13;;;;;;;27.27;16.73;;;;;;;2.19;68.20;99816.56;2959127;80;21112;-68
2021/01/12 01:49:16;;;;;;;23.80;16.02;;;;;;;2.20;68.54;99807.27;2959335;80;21148;-68
2021/01/12 01:53:21;;;;;;;18.75;14.35;;;;;;;2.22;68.63;99808.03;2959377;80;21128;-69
2021/01/12 01:57:24;;;;;;;23.45;13.90;;;;;;;2.24;68.86;99798.30;2959368;80;21132;-69
2021/01/12 02:01:28;;;;;;;25.88;16.48;;;;;;;2.26;68.54;99782.02;2959524;80;21163;-68
2021/01/12 02:05:38;;;;;;;23.80;14.83;;;;;;;2.30;68.53;99773.98;2959274;80;21618;-67
2021/01/12 02:09:54;;;;;;;24.12;15.45;;;;;;;2.31;68.42;99771.73;3010518;77;21113;-68
2021/01/12 02:14:05;;;;;;;28.40;17.57;;;;;;;2.33;68.40;99765.44;3050129;77;21584;-68
2021/01/12 02:18:10;;;;;;;26.45;17.40;;;;;;;2.33;68.10;99762.82;3049766;78;21121;-68
2021/01/12 02:22:22;;;;;;;23.10;13.70;;;;;;;2.32;67.99;99759.81;3030398;77;21581;-68
2021/01/12 02:26:26;;;;;;;23.22;15.83;;;;;;;2.28;68.04;99741.24;3008925;79;21131;-68
2021/01/12 02:30:29;;;;;;;25.05;17.85;;;;;;;2.28;68.06;99749.12;3008934;77;21104;-68
2021/01/12 02:34:33;;;;;;;26.30;16.73;;;;;;;2.28;68.25;99749.12;3008696;79;21147;-68
2021/01/12 02:38:37;;;;;;;22.62;14.55;;;;;;;2.26;68.15;99728.67;3009115;79;21159;-68
2021/01/12 02:42:44;;;;;;;22.48;13.75;;;;;;;2.24;68.06;99729.23;3008780;79;21542;-69
2021/01/12 02:46:48;;;;;;;25.17;16.20;;;;;;;2.26;68.06;99726.91;3008582;79;21557;-67
2021/01/12 02:50:53;;;;;;;30.10;16.75;;;;;;;2.21;67.37;99718.42;3009118;77;21124;-68
2021/01/12 02:54:56;;;;;;;24.70;16.02;;;;;;;2.18;67.70;99710.73;3008900;77;21127;-68
2021/01/12 02:58:59;;;;;;;20.82;14.90;;;;;;;2.13;67.87;99705.73;3008693;78;21080;-68
2021/01/12 03:03:03;;;;;;;28.40;16.27;;;;;;;2.13;68.07;99704.42;3008797;79;21669;-68
2021/01/12 03:07:06;;;;;;;22.27;15.32;;;;;;;2.10;67.92;99694.59;3008432;77;21546;-69
2021/01/12 03:11:10;;;;;;;19.40;13.13;;;;;;;2.07;68.13;99694.28;3004275;77;21123;-69
2021/01/12 03:15:13;;;;;;;22.65;15.48;;;;;;;2.03;68.08;99679.65;3004453;79;21151;-68
2021/01/12 03:19:19;;;;;;;23.00;14.40;;;;;;;2.04;68.41;99667.36;3004791;78;21112;-68
2021/01/12 03:23:22;;;;;;;23.42;14.70;;;;;;;2.03;68.35;99652.55;3004484;79;21109;-69
2021/01/12 03:27:25;;;;;;;26.85;15.08;;;;;;;2.02;68.40;99645.16;3004339;79;21089;-68
2021/01/12 03:31:28;;;;;;;29.12;16.85;;;;;;;2.00;68.38;99640.47;3005122;79;21088;-69
2021/01/12 03:35:32;;;;;;;23.05;16.70;;;;;;;1.98;68.31;99640.55;3004810;79;21139;-68
2021/01/12 03:39:35;;;;;;;23.57;14.90;;;;;;;1.99;68.46;99628.29;3004807;78;21134;-68
2021/01/12 03:43:38;;;;;;;24.10;16.07;;;;;;;2.01;68.51;99626.42;3005002;79;21108;-68
2021/01/12 03:47:42;;;;;;;27.35;18.70;;;;;;;2.06;68.66;99627.45;3004473;79;21136;-69
2021/01/12 03:51:45;;;;;;;24.92;15.32;;;;;;;2.08;69.19;99629.06;3004983;79;21167;-69
2021/01/12 03:55:49;;;;;;;20.10;15.95;;;;;;;2.08;69.23;99619.87;3004915;79;21112;-68
2021/01/12 03:59:52;;;;;;;27.60;15.88;;;;;;;2.18;68.89;99607.56;3004554;79;21550;-69
2021/01/12 04:03:56;;;;;;;32.67;23.32;;;;;;;2.20;68.61;99597.81;3008902;79;21161;-63
2021/01/12 04:08:01;;;;;;;25.17;14.07;;;;;;;2.21;68.23;99588.52;3008969;78;21180;-67
2021/01/12 04:12:05;;;;;;;26.90;14.98;;;;;;;2.22;68.12;99574.95;3008589;79;21101;-66
2021/01/12 04:16:09;;;;;;;21.50;15.45;;;;;;;2.22;67.70;99574.95;3008425;79;21591;-67
2021/01/12 04:20:14;;;;;;;18.15;13.88;;;;;;;2.19;67.46;99564.16;3008476;79;21089;-68
2021/01/12 04:24:17;;;;;;;18.45;14.20;;;;;;;2.18;67.48;99555.91;3008540;79;21141;-67
2021/01/12 04:28:20;;;;;;;20.62;13.43;;;;;;;2.22;67.32;99555.27;3008568;79;21612;-72
2021/01/12 04:32:23;;;;;;;18.50;12.43;;;;;;;2.22;66.93;99536.90;3008826;79;21141;-72
2021/01/12 04:36:26;;;;;;;15.58;10.68;;;;;;;2.23;67.27;99539.41;3008254;79;21121;-75
2021/01/12 04:40:28;;;;;;;17.77;11.75;;;;;;;2.25;66.88;99523.59;3008718;79;21129;-74
2021/01/12 04:44:31;;;;;;;15.38;10.58;;;;;;;2.27;66.57;99516.02;3008424;77;21093;-72
2021/01/12 04:48:34;;;;;;;14.87;12.30;;;;;;;2.26;66.13;99510.39;3008226;79;21101;-72
2021/01/12 04:52:52;;;;;;;20.45;12.18;;;;;;;2.25;66.10;99490.30;3008328;78;21145;-72
2021/01/12 04:56:55;;;;;;;21.15;13.93;;;;;;;2.24;66.37;99492.55;3008545;79;21105;-74
2021/01/12 05:00:58;;;;;;;23.87;14.93;;;;;;;2.20;66.78;99489.74;3008643;79;21121;-76
2021/01/12 05:05:04;;;;;;;16.32;11.48;;;;;;;2.20;66.67;99484.98;3008185;78;21149;-71
2021/01/12 05:09:07;;;;;;;19.00;11.70;;;;;;;2.23;66.90;99475.60;3008393;77;21160;-73
2021/01/12 05:13:13;;;;;;;19.52;11.68;;;;;;;2.20;66.69;99477.10;3008493;79;21101;-72
2021/01/12 05:17:20;;;;;;;21.87;11.83;;;;;;;2.19;66.79;99466.23;3008455;79;21543;-74
2021/01/12 05:21:26;;;;;;;16.87;9.73;;;;;;;2.20;66.87;99457.42;3008811;78;21085;-74
2021/01/12 05:25:33;;;;;;;16.83;9.50;;;;;;;2.23;66.75;99458.06;3008580;79;21551;-76
2021/01/12 05:29:39;;;;;;;17.62;10.95;;;;;;;2.28;66.30;99445.98;3008324;78;21125;-74
2021/01/12 05:33:43;;;;;;;16.40;10.88;;;;;;;2.32;66.05;99440.91;3008829;78;21105;-71
2021/01/12 05:37:46;;;;;;;22.30;13.38;;;;;;;2.37;66.18;99440.19;3015622;77;21160;-74
2021/01/12 05:41:54;;;;;;;26.48;15.48;;;;;;;2.39;66.04;99440.07;3018736;77;21116;-68
2021/01/12 05:45:57;;;;;;;19.80;13.18;;;;;;;2.39;65.72;99431.74;3008949;78;21689;-68
2021/01/12 05:50:04;;;;;;;15.70;11.60;;;;;;;2.39;65.72;99430.88;3009031;77;21136;-69
2021/01/12 05:54:30;;;;;;;14.23;9.05;;;;;;;2.39;65.77;99422.55;3009124;78;21124;-69
2021/01/12 05:58:35;;;;;;;23.35;12.82;;;;;;;2.38;65.62;99422.64;3008617;77;21171;-69
2021/01/12 06:02:42;;;;;;;17.95;12.37;;;;;;;2.39;65.71;99426.49;3008849;78;21148;-69
2021/01/12 06:06:49;;;;;;;16.60;10.25;;;;;;;2.36;65.76;99414.87;3008695;79;21176;-70
2021/01/12 06:10:53;;;;;;;;;;;;;;;2.38;65.92;99416.94;3012553;77;21729;-69
2021/01/12 06:14:59;;;;;;;23.20;12.60;;;;;;;2.39;66.15;99410.74;3004792;79;20133;-68
2021/01/12 06:19:17;;;;;;;19.77;12.13;;;;;;;2.38;66.10;99410.38;3004915;79;21143;-69
2021/01/12 06:23:47;;;;;;;20.65;9.10;;;;;;;2.33;65.51;99408.48;3043066;77;21121;-70
2021/01/12 06:27:50;;;;;;;20.88;12.47;;;;;;;2.28;65.78;99400.91;3044691;77;21516;-68
2021/01/12 06:31:53;;;;;;;21.23;12.58;;;;;;;2.21;65.42;99402.69;3059571;77;21149;-69
2021/01/12 06:36:00;;;;;;;16.50;11.97;;;;;;;2.18;66.12;99396.33;3059783;77;21530;-70
2021/01/12 06:40:09;;;;;;;22.85;11.10;;;;;;;2.14;66.09;99401.73;3059594;77;21129;-70
2021/01/12 06:44:26;;;;;;;17.73;10.58;;;;;;;2.12;66.28;99397.53;3059151;76;21086;-69
2021/01/12 06:48:33;;;;;;;18.67;13.35;;;;;;;2.10;66.31;99395.48;3059438;77;21125;-69
2021/01/12 06:52:48;;;;;;;21.85;12.68;;;;;;;2.10;66.70;99384.98;3059857;77;21120;-69
2021/01/12 06:57:00;;;;;;;20.97;13.40;;;;;;;2.08;66.83;99381.13;3059625;77;21117;-68
2021/01/12 07:01:06;;;;;;;16.93;12.20;;;;;;;2.06;67.19;99382.14;3016592;77;21144;-70
2021/01/12 07:05:13;;;;;;;18.32;12.98;;;;;;;2.06;67.37;99379.52;3004516;79;21108;-70
2021/01/12 07:09:19;;;;;;;23.80;13.38;;;;;;;2.09;67.62;99374.11;3005365;79;21166;-70
2021/01/12 07:13:22;;;;;;;19.15;13.78;;;;;;;2.14;67.69;99365.48;3008793;77;21919;-70
2021/01/12 07:17:28;;;;;;;17.35;11.30;;;;;;;2.18;67.68;99359.10;3009920;78;21104;-70
2021/01/12 07:21:31;;;;;;;24.55;11.68;;;;;;;2.25;67.65;99353.01;3014933;77;21570;-71
2021/01/12 07:25:43;;;;;;;20.62;14.07;;;;;;;2.28;67.59;99348.88;3009232;79;21123;-69
2021/01/12 07:29:51;;;;;;;19.98;14.10;;;;;;;2.30;67.32;99345.69;3009340;78;21100;-69
2021/01/12 07:33:55;;;;;;;18.00;13.55;;;;;;;2.32;67.44;99335.10;3008855;79;21535;-70
2021/01/12 07:38:00;;;;;;;19.57;12.78;;;;;;;2.34;67.81;99331.91;3009159;79;21140;-70
2021/01/12 07:42:05;;;;;;;23.02;13.50;;;;;;;2.35;68.08;99328.34;3009031;79;21641;-70
2021/01/12 07:46:08;;;;;;;21.60;12.80;;;;;;;2.41;68.18;99324.01;3008864;78;21108;-70
2021/01/12 07:50:13;;;;;;;29.70;15.20;;;;;;;2.45;68.38;99321.55;3008837;79;21511;-69
2021/01/12 07:54:24;;;;;;;20.65;11.63;;;;;;;2.50;68.04;99313.39;3026120;77;21114;-69
2021/01/12 07:58:28;;;;;;;25.68;12.80;;;;;;;2.54;68.30;99299.13;3049627;78;21548;-69
2021/01/12 08:02:33;;;;;;;21.17;13.62;;;;;;;2.58;68.09;99292.76;3022282;78;21141;-69
2021/01/12 08:06:46;;;;;;;23.22;16.52;;;;;;;2.60;67.79;99293.50;3050356;77;21129;-69
2021/01/12 08:10:51;;;;;;;29.75;15.18;;;;;;;2.64;67.77;99291.03;3050049;78;21472;-69
2021/01/12 08:14:55;;;;;;;24.90;16.30;;;;;;;2.68;67.94;99287.27;3050171;78;22270;-68
2021/01/12 08:18:59;;;;;;;22.52;12.60;;;;;;;2.74;67.87;99279.92;3050615;77;21133;-69
2021/01/12 08:23:05;;;;;;;23.60;14.90;;;;;;;2.75;67.82;99271.09;3051061;77;22208;-69
2021/01/12 08:27:09;;;;;;;22.27;12.10;;;;;;;2.79;68.00;99259.47;3049601;78;21563;-70
2021/01/12 08:31:18;;;;;;;18.55;13.43;;;;;;;2.86;68.07;99264.68;3050260;78;21125;-69
2021/01/12 08:35:25;;;;;;;18.55;10.50;;;;;;;2.90;68.10;99254.81;3050653;78;21153;-69
2021/01/12 08:39:31;;;;;;;13.22;9.25;;;;;;;2.94;68.08;99255.80;3050728;77;21134;-69
2021/01/12 08:43:36;;;;;;;;;;;;;;;3.03;68.00;99254.83;3053479;76;21145;-69
2021/01/12 08:47:39;;;;;;;14.03;11.03;;;;;;;3.07;67.63;99241.85;3050693;78;20439;-68
2021/01/12 08:51:44;;;;;;;16.70;9.25;;;;;;;3.13;67.52;99237.48;3051550;77;21129;-69
2021/01/12 08:55:47;;;;;;;13.78;10.40;;;;;;;3.18;66.83;99239.35;3059473;77;21131;-69
2021/01/12 08:59:55;;;;;;;28.25;13.78;;;;;;;3.20;66.67;99232.20;3060005;77;21579;-70
2021/01/12 09:04:08;;;;;;;16.67;12.50;;;;;;;3.22;66.13;99230.77;3058791;77;21109;-70
2021/01/12 09:08:20;;;;;;;12.63;10.43;;;;;;;3.24;66.12;99219.22;3058416;77;21125;-70
2021/01/12 09:12:25;;;;;;;17.48;11.78;;;;;;;3.28;65.73;99213.28;3059355;77;21121;-70
2021/01/12 09:16:29;;;;;;;18.57;10.48;;;;;;;3.29;65.57;99205.77;3059415;77;21725;-70
2021/01/12 09:20:38;;;;;;;16.90;11.60;;;;;;;3.34;65.76;99198.85;3060292;77;21125;-69
2021/01/12 09:24:47;;;;;;;14.60;8.75;;;;;;;3.41;65.76;99196.18;3059637;77;21151;-69
2021/01/12 09:28:50;;;;;;;18.12;10.08;;;;;;;3.50;65.68;99192.08;3050336;77;22200;-70
2021/01/12 09:32:53;;;;;;;18.85;11.90;;;;;;;3.56;65.71;99185.91;3009712;79;21147;-69
2021/01/12 09:36:56;;;;;;;16.42;10.82;;;;;;;3.68;65.65;99185.98;3009291;79;21104;-69
2021/01/12 09:41:00;;;;;;;17.52;10.08;;;;;;;3.74;64.87;99180.30;3009240;79;21183;-69
2021/01/12 09:45:04;;;;;;;10.65;8.55;;;;;;;3.78;64.86;99180.44;3009219;79;21136;-70
2021/01/12 09:49:09;;;;;;;16.20;10.08;;;;;;;3.80;65.06;99171.97;3008881;78;21148;-69
2021/01/12 09:53:13;;;;;;;15.60;11.53;;;;;;;3.81;64.51;99162.27;3045232;77;21098;-69
2021/01/12 09:57:15;;;;;;;16.75;10.93;;;;;;;3.79;64.91;99156.28;3059191;77;21139;-70
2021/01/12 10:01:20;;;;;;;16.07;11.20;;;;;;;3.76;65.03;99153.88;3059416;77;21551;-69
2021/01/12 10:05:24;;;;;;;14.28;8.63;;;;;;;3.75;64.78;99149.10;3059067;77;21145;-68
2021/01/12 10:09:28;;;;;;;15.98;10.93;;;;;;;3.69;65.12;99137.69;3059539;77;21113;-70
2021/01/12 10:13:34;;;;;;;16.12;10.72;;;;;;;3.67;65.58;99129.92;3059419;77;21129;-69
2021/01/12 10:17:37;;;;;;;17.45;13.10;;;;;;;3.65;65.46;99128.34;3059299;77;21446;-69
2021/01/12 10:21:40;;;;;;;16.25;11.03;;;;;;;3.67;65.62;99123.80;3039176;77;21518;-69
2021/01/12 10:25:44;;;;;;;18.35;11.40;;;;;;;3.68;65.82;99114.50;3009199;77;22269;-70
2021/01/12 10:29:49;;;;;;;18.52;10.50;;;;;;;3.73;65.64;99106.75;3008894;77;21128;-69
2021/01/12 10:33:53;;;;;;;17.85;9.68;;;;;;;3.80;65.94;99107.52;3008252;77;21581;-69
2021/01/12 10:37:56;;;;;;;14.68;9.73;;;;;;;3.84;65.95;99101.07;3045274;77;21911;-69
2021/01/12 10:42:00;;;;;;;15.25;11.35;;;;;;;3.90;65.84;99094.98;3049706;76;21078;-69
2021/01/12 10:46:05;;;;;;;16.02;12.20;;;;;;;3.95;65.91;99096.83;3045179;77;21145;-70
2021/01/12 10:50:16;;;;;;;16.60;11.33;;;;;;;3.99;65.75;99083.80;3050005;78;21122;-68
2021/01/12 10:54:19;;;;;;;14.03;10.72;;;;;;;4.00;65.57;99084.16;3050048;78;21605;-68
2021/01/12 10:58:25;;;;;;;16.48;10.65;;;;;;;4.03;65.54;99073.87;3050091;77;21133;-69
2021/01/12 11:02:35;;;;;;;20.60;12.03;;;;;;;4.06;65.95;99060.52;3050135;78;21575;-70
2021/01/12 11:06:40;;;;;;;14.20;9.40;;;;;;;4.09;65.77;99053.70;3049863;77;21177;-69
2021/01/12 11:10:45;;;;;;;17.47;11.07;;;;;;;4.07;65.98;99043.77;3050303;77;21121;-70
2021/01/12 11:14:49;;;;;;;16.95;10.18;;;;;;;4.08;66.20;99038.86;3050553;78;21149;-69
2021/01/12 11:18:53;;;;;;;17.12;9.93;;;;;;;4.07;66.37;99037.19;3033915;78;21128;-71
2021/01/12 11:22:55;;;;;;;15.72;11.85;;;;;;;4.07;67.08;99033.23;2992093;77;21124;-70
2021/01/12 11:27:01;;;;;;;17.62;10.85;;;;;;;4.05;67.92;99026.76;3009264;79;21108;-68
2021/01/12 11:31:06;;;;;;;18.52;12.18;;;;;;;4.06;68.79;99019.72;3009254;78;21163;-69
2021/01/12 11:35:10;;;;;;;22.77;14.03;;;;;;;4.04;69.70;99015.88;3009390;78;21602;-70
2021/01/12 11:39:17;;;;;;;14.87;12.40;;;;;;;4.02;70.57;99009.89;3009506;79;21147;-70
2021/01/12 11:43:19;;;;;;;;;;;;;;;3.97;71.53;99001.02;3012200;79;21073;-69
2021/01/12 11:47:23;;;;;;;19.63;11.63;;;;;;;3.84;72.56;98998.97;3012251;79;20176;-70
2021/01/12 11:51:48;;;;;;;18.05;11.48;;;;;;;3.80;73.38;98990.45;3013848;79;21124;-70
2021/01/12 11:55:52;;;;;;;19.05;11.83;;;;;;;3.78;73.97;98992.36;3013534;78;21148;-70
2021/01/12 11:59:56;;;;;;;20.57;13.30;;;;;;;3.73;74.38;98981.32;3013479;77;21133;-68
2021/01/12 12:03:59;;;;;;;21.35;13.70;;;;;;;3.70;74.79;98965.77;3013519;79;21576;-70
2021/01/12 12:08:04;;;;;;;16.57;13.20;;;;;;;3.71;74.75;98961.73;3013300;78;21089;-69
2021/01/12 12:12:08;;;;;;;16.75;11.28;;;;;;;3.78;74.70;98952.91;3011051;78;21172;-70
2021/01/12 12:16:15;;;;;;;16.45;12.98;;;;;;;3.88;74.82;98949.11;3009131;79;21141;-71
2021/01/12 12:20:19;;;;;;;16.42;10.30;;;;;;;4.03;74.52;98939.66;3008585;79;21113;-71
2021/01/12 12:24:28;;;;;;;21.37;10.43;;;;;;;4.13;73.57;98940.19;3009039;79;21109;-70
2021/01/12 12:32:36;;;;;;;16.42;10.55;;;;;;;4.37;72.73;98939.24;3126297;76;22883;-70
2021/01/12 12:36:42;;;;;;;15.13;8.95;;;;;;;4.41;72.53;98932.77;3078468;77;21116;-70
2021/01/12 12:40:45;;;;;;;12.35;8.33;;;;;;;4.45;72.59;98917.58;3078593;77;21081;-69
2021/01/12 12:44:48;;;;;;;18.07;9.43;;;;;;;4.51;72.19;98918.41;3022437;78;21137;-70
2021/01/12 12:48:52;;;;;;;12.80;8.25;;;;;;;4.60;72.12;98915.53;3022684;78;21184;-70
2021/01/12 12:52:57;;;;;;;15.48;9.18;;;;;;;4.68;71.76;98910.98;3022842;78;21121;-69
2021/01/12 12:57:00;;;;;;;13.75;8.85;;;;;;;4.75;71.26;98908.20;3022342;78;21566;-70
2021/01/12 13:01:04;;;;;;;11.75;7.95;;;;;;;4.76;70.66;98901.97;3022381;78;21125;-69
2021/01/12 13:05:10;;;;;;;15.85;7.53;;;;;;;4.79;70.10;98897.77;3022620;78;21131;-69
2021/01/12 13:09:13;;;;;;;14.38;9.70;;;;;;;4.81;70.05;98890.57;3022585;78;21386;-70
2021/01/12 13:13:17;;;;;;;11.63;7.42;;;;;;;4.81;69.81;98887.12;3022771;78;21551;-70
2021/01/12 13:17:27;;;;;;;10.82;7.33;;;;;;;4.82;69.68;98877.78;3022637;78;21148;-69
2021/01/12 13:21:33;;;;;;;14.60;8.48;;;;;;;4.81;69.11;98879.22;3022823;78;21109;-69
2021/01/12 13:25:37;;;;;;;11.20;7.22;;;;;;;4.82;69.40;98878.25;3023505;78;21152;-69
2021/01/12 13:29:40;;;;;;;11.40;8.05;;;;;;;4.79;69.33;98875.87;3022329;77;21144;-69
2021/01/12 13:33:46;;;;;;;14.90;10.13;;;;;;;4.78;69.41;98867.61;3022928;78;21121;-70
2021/01/12 13:37:51;;;;;;;16.37;11.22;;;;;;;4.73;69.46;98868.47;3022485;78;21136;-68
2021/01/12 13:41:55;;;;;;;14.38;9.45;;;;;;;4.66;69.60;98859.72;3022166;77;21126;-68
2021/01/12 13:46:00;;;;;;;15.60;8.28;;;;;;;4.64;69.39;98858.19;3028733;77;21113;-70
2021/01/12 13:50:05;;;;;;;8.35;7.10;;;;;;;4.60;69.57;98861.53;3026953;77;21101;-69
2021/01/12 13:54:12;;;;;;;13.83;6.77;;;;;;;4.57;69.24;98865.24;3027252;78;21583;-72
2021/01/12 13:58:20;;;;;;;12.23;7.08;;;;;;;4.56;69.48;98859.62;3026748;78;21140;-70
2021/01/12 14:02:26;;;;;;;9.05;5.97;;;;;;;4.59;69.45;98858.55;3026903;78;21101;-70
2021/01/12 14:06:32;;;;;;;9.20;6.97;;;;;;;4.58;69.32;98852.43;3026792;78;21601;-69
2021/01/12 14:10:35;;;;;;;10.05;6.90;;;;;;;4.61;69.29;98853.98;3026690;78;21136;-69
2021/01/12 14:14:41;;;;;;;11.22;7.05;;;;;;;4.60;69.09;98852.78;3026753;78;21141;-71
2021/01/12 14:18:45;;;;;;;15.30;8.63;;;;;;;4.59;68.92;98853.28;3027563;78;21132;-66
2021/01/12 14:22:51;;;;;;;12.40;7.53;;;;;;;4.60;69.15;98852.32;3026755;77;21555;-64
2021/01/12 14:26:54;;;;;;;11.05;7.10;;;;;;;4.64;68.96;98859.50;3026841;78;21180;-69
2021/01/12 14:30:59;;;;;;;12.78;8.08;;;;;;;4.68;68.97;98861.75;3020205;77;21140;-72
2021/01/12 14:35:05;;;;;;;9.73;6.72;;;;;;;4.71;68.87;98856.23;3019745;77;21145;-70
2021/01/12 14:39:43;;;;;;;12.13;6.90;;;;;;;4.78;68.82;98852.63;3020662;78;21140;-68
2021/01/12 14:43:48;;;;;;;11.53;7.97;;;;;;;4.82;68.53;98850.59;3018724;77;22589;-66
2021/01/12 14:47:51;;;;;;;12.13;7.55;;;;;;;4.83;68.59;98850.94;3021473;78;21159;-64
2021/01/12 14:52:02;;;;;;;13.85;9.58;;;;;;;4.80;68.85;98848.56;3016961;78;21586;-65
2021/01/12 14:56:05;;;;;;;15.55;9.38;;;;;;;4.80;68.91;98846.74;3014251;78;21120;-64
2021/01/12 15:00:10;;;;;;;11.30;8.68;;;;;;;4.83;69.04;98850.94;3014271;78;21606;-65
2021/01/12 15:04:16;;;;;;;11.37;7.63;;;;;;;4.77;70.01;98840.41;3014773;79;21605;-63
2021/01/12 15:08:19;;;;;;;12.65;8.88;;;;;;;4.77;70.01;98840.41;3014641;79;21787;-64
2021/01/12 15:12:22;;;;;;;12.63;8.20;;;;;;;4.73;70.74;98842.95;3031670;77;21146;-65
2021/01/12 15:16:25;;;;;;;9.13;7.22;;;;;;;4.68;70.83;98842.48;3044899;78;21117;-64
2021/01/12 15:20:30;;;;;;;17.80;9.15;;;;;;;4.65;70.82;98835.66;3045171;77;21098;-64
2021/01/12 15:24:34;;;;;;;11.12;7.83;;;;;;;4.63;70.84;98840.22;3044920;78;21118;-64
2021/01/12 15:28:37;;;;;;;11.60;8.23;;;;;;;4.67;70.96;98844.27;3044848;77;21460;-63
2021/01/12 15:32:44;;;;;;;15.50;9.45;;;;;;;4.70;70.81;98830.02;3034421;77;21128;-65
2021/01/12 15:36:55;;;;;;;16.27;9.50;;;;;;;4.75;70.87;98832.30;3024815;77;21116;-64
2021/01/12 15:41:07;;;;;;;12.35;9.73;;;;;;;4.76;70.92;98827.37;3036485;77;21628;-64
2021/01/12 15:45:43;;;;;;;14.47;10.18;;;;;;;4.79;70.73;98823.17;3028442;78;21126;-66
2021/01/12 15:49:49;;;;;;;;;;;;;;;4.81;70.35;98819.94;3030326;78;21089;-65
2021/01/12 15:54:29;;;;;;;26.70;16.48;;;;;;;4.79;70.33;98811.32;3027811;78;20441;-65
2021/01/12 15:58:39;;;;;;;22.22;14.25;;;;;;;4.76;70.29;98813.72;3027867;78;21084;-65
2021/01/12 16:02:47;;;;;;;25.75;16.75;;;;;;;4.79;70.44;98814.77;3027723;78;21628;-65
2021/01/12 16:07:25;;;;;;;22.02;13.93;;;;;;;4.81;70.12;98808.08;3027618;78;21149;-65
2021/01/12 16:11:32;;;;;;;17.40;11.70;;;;;;;4.76;70.31;98804.98;3028146;78;21112;-65
2021/01/12 16:16:09;;;;;;;13.48;10.18;;;;;;;4.75;70.43;98809.41;3027866;78;21137;-66
2021/01/12 16:20:18;;;;;;;14.90;9.63;;;;;;;4.71;70.61;98807.49;3017000;78;21141;-64
2021/01/12 16:29:23;;;;;;;18.42;11.83;;;;;;;4.73;71.15;98814.47;2954963;80;21125;-66
2021/01/12 16:33:52;;;;;;;18.37;12.58;;;;;;;4.73;71.20;98814.47;2950400;79;21141;-66
2021/01/12 16:38:03;;;;;;;21.37;11.08;;;;;;;4.69;71.45;98813.38;2950423;80;21090;-64
2021/01/12 16:42:14;;;;;;;17.23;11.38;;;;;;;4.71;71.81;98821.16;2920057;79;21142;-65
2021/01/12 16:46:17;;;;;;;14.33;10.35;;;;;;;4.70;72.12;98812.41;3020610;77;21122;-65
2021/01/12 16:50:21;;;;;;;20.02;12.20;;;;;;;4.67;72.63;98808.71;3047169;77;21606;-65
2021/01/12 16:54:24;;;;;;;15.70;11.28;;;;;;;4.62;73.21;98811.35;2967533;80;21135;-66
2021/01/12 16:58:28;;;;;;;15.30;10.68;;;;;;;4.60;73.92;98804.06;3007964;77;21143;-68
2021/01/12 17:02:43;;;;;;;14.87;8.58;;;;;;;4.56;74.51;98808.76;3053470;77;21130;-67
2021/01/12 17:06:48;;;;;;;16.17;11.18;;;;;;;4.55;74.94;98803.95;3063894;77;21145;-67
2021/01/12 17:10:53;;;;;;;14.40;10.65;;;;;;;4.60;75.20;98807.55;3046635;77;21136;-68
2021/01/12 17:15:03;;;;;;;19.23;13.43;;;;;;;4.63;75.46;98807.78;3014199;77;21576;-64
2021/01/12 17:19:26;;;;;;;14.53;11.25;;;;;;;4.65;75.70;98807.18;3025325;78;21163;-65
2021/01/12 17:23:33;;;;;;;21.27;10.58;;;;;;;4.65;75.99;98810.63;2754453;85;21552;-66
2021/01/12 17:27:40;;;;;;;17.23;10.60;;;;;;;4.69;76.31;98813.87;2783506;84;21192;-65
2021/01/12 17:31:46;;;;;;;8.73;7.67;;;;;;;4.70;76.40;98805.00;2780837;85;21712;-65
2021/01/12 17:35:50;;;;;;;5.92;4.20;;;;;;;4.73;77.06;98803.43;2784147;83;21701;-65
2021/01/12 17:40:03;;;;;;;9.55;4.03;;;;;;;4.80;78.01;98809.04;2762182;85;21216;-66
2021/01/12 17:44:07;;;;;;;4.45;3.33;;;;;;;4.87;78.34;98808.88;2791350;84;21211;-66
2021/01/12 17:48:12;;;;;;;8.43;4.35;;;;;;;4.90;78.34;98804.67;2856975;83;21152;-66
2021/01/12 17:52:17;;;;;;;7.70;5.70;;;;;;;4.97;78.41;98814.23;2852108;82;21221;-66
2021/01/12 17:56:20;;;;;;;6.28;4.42;;;;;;;5.05;78.36;98811.83;2848818;82;21164;-65
2021/01/12 18:00:25;;;;;;;6.70;4.92;;;;;;;5.04;78.32;98818.52;2850962;82;21121;-66
2021/01/12 18:04:29;;;;;;;5.53;4.45;;;;;;;5.04;78.41;98810.62;2851395;82;21156;-68
2021/01/12 18:08:34;;;;;;;11.25;5.85;;;;;;;5.04;78.49;98822.48;2851993;82;21144;-64
2021/01/12 18:12:41;;;;;;;6.23;4.43;;;;;;;5.05;78.65;98827.63;2844876;82;22242;-66
2021/01/12 18:16:45;;;;;;;9.50;5.25;;;;;;;5.03;78.88;98832.66;2831782;83;21172;-64
2021/01/12 18:20:50;;;;;;;8.63;5.28;;;;;;;5.02;79.14;98831.84;2849142;82;21627;-67
2021/01/12 18:24:56;;;;;;;7.03;4.72;;;;;;;5.04;79.24;98839.61;2828239;83;21168;-69
2021/01/12 18:29:02;;;;;;;7.45;4.70;;;;;;;4.99;79.44;98830.75;2821121;84;21172;-63
2021/01/12 18:33:10;;;;;;;;;;;;;;;4.95;79.58;98839.41;2823060;83;21160;-65
2021/01/12 18:37:20;;;;;;;9.63;6.03;;;;;;;4.92;79.66;98842.30;2821727;82;20204;-67
2021/01/12 18:41:27;;;;;;;6.67;4.55;;;;;;;4.91;79.95;98848.50;2836151;82;21188;-65
2021/01/12 18:45:32;;;;;;;12.17;6.00;;;;;;;4.90;80.04;98851.28;2839010;82;21152;-66
2021/01/12 18:49:35;;;;;;;10.68;6.55;;;;;;;4.88;80.36;98850.08;2831336;83;21153;-65
2021/01/12 18:53:39;;;;;;;7.87;5.65;;;;;;;4.84;80.64;98852.61;2819625;83;21176;-66
2021/01/12 18:57:44;;;;;;;7.85;5.50;;;;;;;4.78;80.74;98858.39;2822692;84;21575;-65
2021/01/12 19:01:48;;;;;;;8.50;4.75;;;;;;;4.74;80.81;98864.38;2822251;83;21757;-65
2021/01/12 19:05:51;;;;;;;8.28;5.45;;;;;;;4.69;81.08;98867.87;2822281;83;21543;-65
2021/01/12 19:09:56;;;;;;;5.97;5.15;;;;;;;4.61;81.49;98867.63;2823365;83;21196;-67
2021/01/12 19:14:00;;;;;;;6.85;3.90;;;;;;;4.52;81.55;98882.36;2821500;83;21612;-69
2021/01/12 19:18:04;;;;;;;6.12;3.92;;;;;;;4.45;82.09;98882.50;2826445;83;21183;-67
2021/01/12 19:22:09;;;;;;;8.68;5.10;;;;;;;4.29;82.77;98880.60;2793562;84;21197;-67